sensor_id;sensor_type;location;lat;lon;timestamp;pressure;altitude;pressure_sealevel;temperature;humidity
70015;BME280;57358;51.094;6.760;2023-05-29T00:02:06;101327.06;;;13.95;67.18
70015;BME280;57358;51.094;6.760;2023-05-29T00:04:33;101312.75;;;13.84;67.01
70015;BME280;57358;51.094;6.760;2023-05-29T00:07:00;101318.72;;;13.87;66.99
70015;BME280;57358;51.094;6.760;2023-05-29T00:09:26;101324.25;;;13.83;66.55
70015;BME280;57358;51.094;6.760;2023-05-29T00:11:54;101323.59;;;13.79;67.34
70015;BME280;57358;51.094;6.760;2023-05-29T00:14:21;101315.56;;;13.65;67.39
70015;BME280;57358;51.094;6.760;2023-05-29T00:16:51;101331.81;;;13.73;66.46
70015;BME280;57358;51.094;6.760;2023-05-29T00:19:18;101247.19;;;13.12;67.25
70015;BME280;57358;51.094;6.760;2023-05-29T00:21:47;101304.34;;;13.45;67.09
70015;BME280;57358;51.094;6.760;2023-05-29T00:24:15;101327.91;;;13.64;66.46
70015;BME280;57358;51.094;6.760;2023-05-29T00:26:42;101337.09;;;13.57;67.66
70015;BME280;57358;51.094;6.760;2023-05-29T00:29:09;101336.56;;;13.50;67.82
70015;BME280;57358;51.094;6.760;2023-05-29T00:31:35;101339.22;;;13.50;67.97
70015;BME280;57358;51.094;6.760;2023-05-29T00:34:03;101352.97;;;13.40;68.60
70015;BME280;57358;51.094;6.760;2023-05-29T00:36:29;101346.31;;;13.32;68.67
70015;BME280;57358;51.094;6.760;2023-05-29T00:38:59;101353.59;;;13.27;68.34
70015;BME280;57358;51.094;6.760;2023-05-29T00:41:25;101359.88;;;13.25;68.68
70015;BME280;57358;51.094;6.760;2023-05-29T00:43:52;101335.66;;;13.01;68.83
70015;BME280;57358;51.094;6.760;2023-05-29T00:46:18;101356.66;;;13.02;69.56
70015;BME280;57358;51.094;6.760;2023-05-29T00:48:47;101368.66;;;13.08;69.49
70015;BME280;57358;51.094;6.760;2023-05-29T00:51:14;101306.88;;;12.63;69.63
70015;BME280;57358;51.094;6.760;2023-05-29T00:53:42;101290.72;;;12.53;69.47
70015;BME280;57358;51.094;6.760;2023-05-29T00:56:10;101333.75;;;12.69;69.57
70015;BME280;57358;51.094;6.760;2023-05-29T00:58:37;101378.75;;;13.00;69.94
70015;BME280;57358;51.094;6.760;2023-05-29T01:01:04;101385.13;;;12.95;70.19
70015;BME280;57358;51.094;6.760;2023-05-29T01:03:30;101339.47;;;12.60;70.50
70015;BME280;57358;51.094;6.760;2023-05-29T01:05:58;101388.13;;;12.88;70.65
70015;BME280;57358;51.094;6.760;2023-05-29T01:08:26;101370.06;;;12.63;71.08
70015;BME280;57358;51.094;6.760;2023-05-29T01:10:56;101409.53;;;12.82;71.17
70015;BME280;57358;51.094;6.760;2023-05-29T01:13:29;101407.19;;;12.75;71.82
70015;BME280;57358;51.094;6.760;2023-05-29T01:16:13;101401.22;;;12.72;71.54
70015;BME280;57358;51.094;6.760;2023-05-29T01:18:54;101387.22;;;12.71;71.63
70015;BME280;57358;51.094;6.760;2023-05-29T01:21:42;101404.09;;;12.67;71.92
70015;BME280;57358;51.094;6.760;2023-05-29T01:26:45;101407.34;;;12.72;71.79
70015;BME280;57358;51.094;6.760;2023-05-29T01:29:18;101402.16;;;12.71;71.92
70015;BME280;57358;51.094;6.760;2023-05-29T01:31:46;101410.28;;;12.66;72.06
70015;BME280;57358;51.094;6.760;2023-05-29T01:34:13;101417.25;;;12.67;72.16
70015;BME280;57358;51.094;6.760;2023-05-29T01:36:40;101422.06;;;12.59;72.73
70015;BME280;57358;51.094;6.760;2023-05-29T01:39:06;101344.75;;;12.06;73.21
70015;BME280;57358;51.094;6.760;2023-05-29T01:41:34;101377.44;;;12.20;73.74
70015;BME280;57358;51.094;6.760;2023-05-29T01:44:05;101318.16;;;11.74;73.86
70015;BME280;57358;51.094;6.760;2023-05-29T01:46:36;101384.78;;;12.13;74.50
70015;BME280;57358;51.094;6.760;2023-05-29T01:49:04;101395.16;;;12.16;74.81
70015;BME280;57358;51.094;6.760;2023-05-29T01:51:31;101456.38;;;12.38;75.21
70015;BME280;57358;51.094;6.760;2023-05-29T01:53:59;101464.72;;;12.29;75.85
70015;BME280;57358;51.094;6.760;2023-05-29T01:56:29;101471.06;;;12.25;76.76
70015;BME280;57358;51.094;6.760;2023-05-29T01:58:57;101470.41;;;12.20;77.41
70015;BME280;57358;51.094;6.760;2023-05-29T02:01:24;101271.97;;;10.93;78.09
70015;BME280;57358;51.094;6.760;2023-05-29T02:03:51;101314.03;;;11.12;78.57
70015;BME280;57358;51.094;6.760;2023-05-29T02:06:17;101411.47;;;11.66;79.30
70015;BME280;57358;51.094;6.760;2023-05-29T02:08:44;101490.03;;;12.13;78.80
70015;BME280;57358;51.094;6.760;2023-05-29T02:11:10;101486.97;;;12.03;79.89
70015;BME280;57358;51.094;6.760;2023-05-29T02:13:37;101489.72;;;12.00;79.94
70015;BME280;57358;51.094;6.760;2023-05-29T02:16:03;101466.81;;;11.83;79.83
70015;BME280;57358;51.094;6.760;2023-05-29T02:18:30;101492.88;;;11.88;80.56
70015;BME280;57358;51.094;6.760;2023-05-29T02:20:59;101503.81;;;11.78;81.52
70015;BME280;57358;51.094;6.760;2023-05-29T02:23:26;101495.28;;;11.73;81.63
70015;BME280;57358;51.094;6.760;2023-05-29T02:25:52;101496.34;;;11.69;82.16
70015;BME280;57358;51.094;6.760;2023-05-29T02:28:19;101487.44;;;11.53;82.50
70015;BME280;57358;51.094;6.760;2023-05-29T02:30:45;101356.34;;;10.65;82.49
70015;BME280;57358;51.094;6.760;2023-05-29T02:33:12;101482.03;;;11.35;82.98
70015;BME280;57358;51.094;6.760;2023-05-29T02:35:38;101517.31;;;11.30;84.71
70015;BME280;57358;51.094;6.760;2023-05-29T02:38:05;101455.81;;;10.93;85.17
70015;BME280;57358;51.094;6.760;2023-05-29T02:40:31;101455.97;;;10.88;85.57
70015;BME280;57358;51.094;6.760;2023-05-29T02:42:57;101436.41;;;10.75;84.95
70015;BME280;57358;51.094;6.760;2023-05-29T02:45:24;101508.94;;;11.20;85.64
70015;BME280;57358;51.094;6.760;2023-05-29T02:47:50;101505.41;;;11.21;85.04
70015;BME280;57358;51.094;6.760;2023-05-29T02:50:17;101504.31;;;11.27;84.43
70015;BME280;57358;51.094;6.760;2023-05-29T02:52:43;101504.75;;;11.16;84.52
70015;BME280;57358;51.094;6.760;2023-05-29T02:55:10;101522.50;;;11.11;84.75
70015;BME280;57358;51.094;6.760;2023-05-29T02:57:36;101504.13;;;10.89;85.18
70015;BME280;57358;51.094;6.760;2023-05-29T03:00:03;101500.88;;;10.82;85.83
70015;BME280;57358;51.094;6.760;2023-05-29T03:02:34;101412.41;;;10.18;86.08
70015;BME280;57358;51.094;6.760;2023-05-29T03:05:02;101518.09;;;10.89;85.72
70015;BME280;57358;51.094;6.760;2023-05-29T03:07:28;101506.91;;;10.84;85.38
70015;BME280;57358;51.094;6.760;2023-05-29T03:09:55;101508.16;;;10.75;86.13
70015;BME280;57358;51.094;6.760;2023-05-29T03:12:27;101516.06;;;10.74;86.09
70015;BME280;57358;51.094;6.760;2023-05-29T03:14:54;101493.94;;;10.59;86.12
70015;BME280;57358;51.094;6.760;2023-05-29T03:17:22;101495.88;;;10.54;86.49
70015;BME280;57358;51.094;6.760;2023-05-29T03:19:48;101507.84;;;10.61;86.04
70015;BME280;57358;51.094;6.760;2023-05-29T03:22:15;101305.44;;;9.36;86.33
70015;BME280;57358;51.094;6.760;2023-05-29T03:24:44;101506.50;;;10.51;86.95
70015;BME280;57358;51.094;6.760;2023-05-29T03:27:10;101499.66;;;10.47;87.30
70015;BME280;57358;51.094;6.760;2023-05-29T03:29:36;101509.06;;;10.52;87.67
70015;BME280;57358;51.094;6.760;2023-05-29T03:32:03;101447.72;;;10.09;86.72
70015;BME280;57358;51.094;6.760;2023-05-29T03:34:30;101511.25;;;10.41;87.49
70015;BME280;57358;51.094;6.760;2023-05-29T03:36:56;101486.63;;;10.20;87.60
70015;BME280;57358;51.094;6.760;2023-05-29T03:39:23;101481.53;;;10.17;87.95
70015;BME280;57358;51.094;6.760;2023-05-29T03:41:49;101518.31;;;10.39;87.93
70015;BME280;57358;51.094;6.760;2023-05-29T03:44:16;101522.78;;;10.37;88.53
70015;BME280;57358;51.094;6.760;2023-05-29T03:46:42;101488.22;;;10.24;88.16
70015;BME280;57358;51.094;6.760;2023-05-29T03:49:08;101508.56;;;10.19;88.96
70015;BME280;57358;51.094;6.760;2023-05-29T03:51:35;101530.50;;;10.40;88.43
70015;BME280;57358;51.094;6.760;2023-05-29T03:54:02;101522.16;;;10.30;88.65
70015;BME280;57358;51.094;6.760;2023-05-29T03:56:28;101543.75;;;10.37;88.87
70015;BME280;57358;51.094;6.760;2023-05-29T03:58:56;101494.06;;;10.09;89.00
70015;BME280;57358;51.094;6.760;2023-05-29T04:01:22;101560.91;;;10.46;88.69
70015;BME280;57358;51.094;6.760;2023-05-29T04:03:49;101541.19;;;10.35;88.84
70015;BME280;57358;51.094;6.760;2023-05-29T04:06:16;101564.84;;;10.57;88.38
70015;BME280;57358;51.094;6.760;2023-05-29T04:08:42;101539.22;;;10.64;88.09
70015;BME280;57358;51.094;6.760;2023-05-29T04:11:08;101561.25;;;11.04;86.60
70015;BME280;57358;51.094;6.760;2023-05-29T04:13:35;101574.13;;;11.32;84.44
70015;BME280;57358;51.094;6.760;2023-05-29T04:16:02;101569.44;;;11.61;82.73
70015;BME280;57358;51.094;6.760;2023-05-29T04:18:28;101513.09;;;11.46;81.58
70015;BME280;57358;51.094;6.760;2023-05-29T04:20:55;101437.50;;;11.12;80.16
70015;BME280;57358;51.094;6.760;2023-05-29T04:23:21;101544.66;;;11.87;78.57
70015;BME280;57358;51.094;6.760;2023-05-29T04:25:47;101442.63;;;11.35;77.64
70015;BME280;57358;51.094;6.760;2023-05-29T04:28:17;101459.69;;;11.46;77.76
70015;BME280;57358;51.094;6.760;2023-05-29T04:30:43;101508.38;;;11.75;77.81
70015;BME280;57358;51.094;6.760;2023-05-29T04:33:09;101555.72;;;11.95;77.34
70015;BME280;57358;51.094;6.760;2023-05-29T04:35:38;101476.66;;;11.59;76.38
70015;BME280;57358;51.094;6.760;2023-05-29T04:38:04;101543.09;;;12.23;75.84
70015;BME280;57358;51.094;6.760;2023-05-29T04:40:31;101551.84;;;12.80;74.71
70015;BME280;57358;51.094;6.760;2023-05-29T04:42:59;101514.84;;;12.64;73.70
70015;BME280;57358;51.094;6.760;2023-05-29T04:45:28;101487.00;;;12.58;73.08
70015;BME280;57358;51.094;6.760;2023-05-29T04:47:54;101507.09;;;12.97;71.42
70015;BME280;57358;51.094;6.760;2023-05-29T04:50:22;101424.69;;;12.76;70.33
70015;BME280;57358;51.094;6.760;2023-05-29T04:52:55;101466.00;;;13.11;69.69
70015;BME280;57358;51.094;6.760;2023-05-29T04:55:22;101340.53;;;12.21;69.98
70015;BME280;57358;51.094;6.760;2023-05-29T04:57:49;101462.56;;;12.74;70.52
70015;BME280;57358;51.094;6.760;2023-05-29T05:00:16;101526.75;;;13.62;69.47
70015;BME280;57358;51.094;6.760;2023-05-29T05:02:44;101493.63;;;13.56;69.23
70015;BME280;57358;51.094;6.760;2023-05-29T05:05:11;101446.16;;;13.56;68.13
70015;BME280;57358;51.094;6.760;2023-05-29T05:07:38;101413.78;;;13.86;66.76
70015;BME280;57358;51.094;6.760;2023-05-29T05:10:04;101427.28;;;13.13;67.91
70015;BME280;57358;51.094;6.760;2023-05-29T05:12:31;101511.78;;;13.95;68.25
70015;BME280;57358;51.094;6.760;2023-05-29T05:14:58;101396.13;;;13.54;66.84
70015;BME280;57358;51.094;6.760;2023-05-29T05:17:24;101422.88;;;13.80;66.63
70015;BME280;57358;51.094;6.760;2023-05-29T05:19:53;101448.38;;;14.29;65.69
70015;BME280;57358;51.094;6.760;2023-05-29T05:22:19;101459.94;;;14.42;65.41
70015;BME280;57358;51.094;6.760;2023-05-29T05:24:46;101405.88;;;13.86;65.09
70015;BME280;57358;51.094;6.760;2023-05-29T05:27:13;101402.81;;;13.44;66.33
70015;BME280;57358;51.094;6.760;2023-05-29T05:29:39;101374.41;;;13.33;66.08
70015;BME280;57358;51.094;6.760;2023-05-29T05:32:06;101447.69;;;13.93;66.37
70015;BME280;57358;51.094;6.760;2023-05-29T05:34:33;101421.72;;;13.52;66.67
70015;BME280;57358;51.094;6.760;2023-05-29T05:36:59;101447.69;;;14.09;66.01
70015;BME280;57358;51.094;6.760;2023-05-29T05:39:26;101478.69;;;14.06;65.78
70015;BME280;57358;51.094;6.760;2023-05-29T05:41:52;101473.19;;;14.58;65.13
70015;BME280;57358;51.094;6.760;2023-05-29T05:44:21;101440.34;;;14.14;64.92
70015;BME280;57358;51.094;6.760;2023-05-29T05:46:47;101482.78;;;14.59;65.26
70015;BME280;57358;51.094;6.760;2023-05-29T05:49:14;101421.59;;;14.35;64.75
70015;BME280;57358;51.094;6.760;2023-05-29T05:51:40;101442.81;;;14.65;63.52
70015;BME280;57358;51.094;6.760;2023-05-29T05:54:07;101430.06;;;14.42;64.57
70015;BME280;57358;51.094;6.760;2023-05-29T05:56:33;101363.31;;;13.92;64.38
70015;BME280;57358;51.094;6.760;2023-05-29T05:58:59;101449.03;;;14.80;63.51
70015;BME280;57358;51.094;6.760;2023-05-29T06:01:26;101448.38;;;14.91;63.88
70015;BME280;57358;51.094;6.760;2023-05-29T06:03:53;101393.88;;;15.04;62.78
70015;BME280;57358;51.094;6.760;2023-05-29T06:06:20;101449.47;;;15.62;62.55
70015;BME280;57358;51.094;6.760;2023-05-29T06:08:46;101420.25;;;15.63;61.74
70015;BME280;57358;51.094;6.760;2023-05-29T06:11:13;101385.69;;;15.38;61.88
70015;BME280;57358;51.094;6.760;2023-05-29T06:13:39;101430.34;;;15.13;62.93
70015;BME280;57358;51.094;6.760;2023-05-29T06:16:06;101424.19;;;15.27;62.33
70015;BME280;57358;51.094;6.760;2023-05-29T06:18:32;101364.03;;;15.16;61.44
70015;BME280;57358;51.094;6.760;2023-05-29T06:20:59;101368.50;;;14.71;62.61
70015;BME280;57358;51.094;6.760;2023-05-29T06:23:26;101451.34;;;14.39;64.47
70015;BME280;57358;51.094;6.760;2023-05-29T06:25:53;101520.88;;;14.71;65.73
70015;BME280;57358;51.094;6.760;2023-05-29T06:28:19;101448.28;;;14.30;65.92
70015;BME280;57358;51.094;6.760;2023-05-29T06:30:46;101445.56;;;14.16;65.91
70015;BME280;57358;51.094;6.760;2023-05-29T06:33:12;101386.28;;;13.07;67.70
70015;BME280;57358;51.094;6.760;2023-05-29T06:35:39;101513.28;;;13.84;67.39
70015;BME280;57358;51.094;6.760;2023-05-29T06:38:06;101519.44;;;14.00;67.67
70015;BME280;57358;51.094;6.760;2023-05-29T06:40:32;101486.31;;;13.94;66.93
70015;BME280;57358;51.094;6.760;2023-05-29T06:42:59;101392.44;;;13.41;67.29
70015;BME280;57358;51.094;6.760;2023-05-29T06:45:26;101494.53;;;14.22;66.52
70015;BME280;57358;51.094;6.760;2023-05-29T06:47:53;101535.19;;;14.67;66.89
70015;BME280;57358;51.094;6.760;2023-05-29T06:50:21;101480.72;;;14.48;65.49
70015;BME280;57358;51.094;6.760;2023-05-29T06:52:48;101370.03;;;13.66;65.84
70015;BME280;57358;51.094;6.760;2023-05-29T06:55:14;101464.13;;;14.46;64.86
70015;BME280;57358;51.094;6.760;2023-05-29T06:57:40;101471.78;;;14.35;65.40
70015;BME280;57358;51.094;6.760;2023-05-29T07:00:07;101475.34;;;14.02;66.49
70015;BME280;57358;51.094;6.760;2023-05-29T07:02:37;101516.66;;;14.35;66.03
70015;BME280;57358;51.094;6.760;2023-05-29T07:05:03;101543.47;;;14.61;66.73
70015;BME280;57358;51.094;6.760;2023-05-29T07:07:30;101427.34;;;14.27;64.86
70015;BME280;57358;51.094;6.760;2023-05-29T07:09:56;101388.34;;;14.01;65.01
70015;BME280;57358;51.094;6.760;2023-05-29T07:12:23;101471.78;;;14.51;64.27
70015;BME280;57358;51.094;6.760;2023-05-29T07:14:49;101483.25;;;14.67;64.62
70015;BME280;57358;51.094;6.760;2023-05-29T07:17:18;101439.16;;;14.52;64.55
70015;BME280;57358;51.094;6.760;2023-05-29T07:19:45;101516.41;;;14.87;64.93
70015;BME280;57358;51.094;6.760;2023-05-29T07:22:12;101470.59;;;14.72;65.17
70015;BME280;57358;51.094;6.760;2023-05-29T07:24:39;101435.09;;;14.92;63.37
70015;BME280;57358;51.094;6.760;2023-05-29T07:27:05;101486.19;;;15.38;63.56
70015;BME280;57358;51.094;6.760;2023-05-29T07:29:32;101458.34;;;15.02;64.03
70015;BME280;57358;51.094;6.760;2023-05-29T07:31:58;101423.34;;;14.82;64.05
70015;BME280;57358;51.094;6.760;2023-05-29T07:34:25;101476.31;;;15.25;62.86
70015;BME280;57358;51.094;6.760;2023-05-29T07:37:05;101481.56;;;15.41;62.76
70015;BME280;57358;51.094;6.760;2023-05-29T07:39:33;101484.13;;;15.57;62.32
70015;BME280;57358;51.094;6.760;2023-05-29T07:42:01;101380.94;;;15.14;62.09
70015;BME280;57358;51.094;6.760;2023-05-29T07:44:28;101403.25;;;15.24;61.84
70015;BME280;57358;51.094;6.760;2023-05-29T07:46:55;101517.97;;;15.66;62.71
70015;BME280;57358;51.094;6.760;2023-05-29T07:49:21;101451.16;;;15.34;62.73
70015;BME280;57358;51.094;6.760;2023-05-29T07:51:48;101440.28;;;14.94;62.95
70015;BME280;57358;51.094;6.760;2023-05-29T07:54:14;101530.59;;;15.47;63.12
70015;BME280;57358;51.094;6.760;2023-05-29T07:56:44;101490.22;;;15.29;63.50
70015;BME280;57358;51.094;6.760;2023-05-29T07:59:10;101579.38;;;15.87;63.86
70015;BME280;57358;51.094;6.760;2023-05-29T08:01:37;101533.44;;;15.88;62.85
70015;BME280;57358;51.094;6.760;2023-05-29T08:04:03;101439.28;;;15.55;61.23
70015;BME280;57358;51.094;6.760;2023-05-29T08:06:30;101457.19;;;15.22;62.87
70015;BME280;57358;51.094;6.760;2023-05-29T08:08:58;101414.56;;;15.26;61.69
70015;BME280;57358;51.094;6.760;2023-05-29T08:11:25;101497.31;;;15.87;61.68
70015;BME280;57358;51.094;6.760;2023-05-29T08:13:51;101404.59;;;15.01;62.08
70015;BME280;57358;51.094;6.760;2023-05-29T08:16:18;101242.63;;;14.26;61.57
70015;BME280;57358;51.094;6.760;2023-05-29T08:18:44;101427.81;;;15.69;60.71
70015;BME280;57358;51.094;6.760;2023-05-29T08:21:11;101528.97;;;16.03;61.69
70015;BME280;57358;51.094;6.760;2023-05-29T08:23:38;101470.75;;;15.89;61.04
70015;BME280;57358;51.094;6.760;2023-05-29T08:26:04;101523.44;;;16.08;60.82
70015;BME280;57358;51.094;6.760;2023-05-29T08:28:31;101464.13;;;15.96;61.25
70015;BME280;57358;51.094;6.760;2023-05-29T08:30:57;101519.75;;;16.52;60.34
70015;BME280;57358;51.094;6.760;2023-05-29T08:33:24;101393.16;;;15.60;60.58
70015;BME280;57358;51.094;6.760;2023-05-29T08:35:50;101497.03;;;16.06;60.48
70015;BME280;57358;51.094;6.760;2023-05-29T08:38:17;101501.66;;;16.03;60.60
70015;BME280;57358;51.094;6.760;2023-05-29T08:40:44;101557.03;;;16.49;61.44
70015;BME280;57358;51.094;6.760;2023-05-29T08:43:15;101568.69;;;16.46;61.83
70015;BME280;57358;51.094;6.760;2023-05-29T08:45:43;101598.88;;;16.58;61.66
70015;BME280;57358;51.094;6.760;2023-05-29T08:48:11;101455.03;;;16.14;60.30
70015;BME280;57358;51.094;6.760;2023-05-29T08:50:43;101477.69;;;16.33;60.52
70015;BME280;57358;51.094;6.760;2023-05-29T08:53:13;101476.81;;;16.47;60.45
70015;BME280;57358;51.094;6.760;2023-05-29T08:55:40;101563.22;;;16.91;60.57
70015;BME280;57358;51.094;6.760;2023-05-29T08:58:08;101451.75;;;16.65;59.29
70015;BME280;57358;51.094;6.760;2023-05-29T09:00:36;101490.72;;;17.18;58.46
70015;BME280;57358;51.094;6.760;2023-05-29T09:03:02;101536.13;;;17.13;59.31
70015;BME280;57358;51.094;6.760;2023-05-29T09:05:29;101444.34;;;16.98;58.34
70015;BME280;57358;51.094;6.760;2023-05-29T09:07:56;101515.34;;;17.20;59.05
70015;BME280;57358;51.094;6.760;2023-05-29T09:10:23;101532.53;;;17.14;59.10
70015;BME280;57358;51.094;6.760;2023-05-29T09:12:51;101456.88;;;17.08;58.50
70015;BME280;57358;51.094;6.760;2023-05-29T09:15:22;101549.53;;;17.24;60.04
70015;BME280;57358;51.094;6.760;2023-05-29T09:17:53;101505.84;;;17.30;58.68
70015;BME280;57358;51.094;6.760;2023-05-29T09:20:21;101464.00;;;17.21;58.00
70015;BME280;57358;51.094;6.760;2023-05-29T09:23:02;101455.81;;;17.24;57.43
70015;BME280;57358;51.094;6.760;2023-05-29T09:25:32;101480.38;;;17.40;57.67
70015;BME280;57358;51.094;6.760;2023-05-29T09:28:03;101493.41;;;17.43;57.49
70015;BME280;57358;51.094;6.760;2023-05-29T09:30:38;101427.38;;;17.00;57.87
70015;BME280;57358;51.094;6.760;2023-05-29T09:33:07;101565.19;;;17.54;58.91
70015;BME280;57358;51.094;6.760;2023-05-29T09:35:42;101510.72;;;17.62;58.13
70015;BME280;57358;51.094;6.760;2023-05-29T09:38:14;101591.09;;;17.64;59.32
70015;BME280;57358;51.094;6.760;2023-05-29T09:41:04;101399.56;;;16.53;58.78
70015;BME280;57358;51.094;6.760;2023-05-29T09:43:31;101566.59;;;17.73;58.59
70015;BME280;57358;51.094;6.760;2023-05-29T09:46:00;101570.97;;;18.00;57.68
70015;BME280;57358;51.094;6.760;2023-05-29T09:48:29;101487.25;;;17.81;56.96
70015;BME280;57358;51.094;6.760;2023-05-29T09:50:55;101499.06;;;17.90;57.02
70015;BME280;57358;51.094;6.760;2023-05-29T09:53:25;101467.31;;;17.63;56.71
70015;BME280;57358;51.094;6.760;2023-05-29T09:55:54;101526.56;;;17.63;57.75
70015;BME280;57358;51.094;6.760;2023-05-29T09:58:22;101514.03;;;17.78;57.07
70015;BME280;57358;51.094;6.760;2023-05-29T10:00:49;101522.88;;;17.91;56.69
70015;BME280;57358;51.094;6.760;2023-05-29T10:03:18;101604.88;;;18.22;57.74
70015;BME280;57358;51.094;6.760;2023-05-29T10:05:49;101454.06;;;17.88;56.43
70015;BME280;57358;51.094;6.760;2023-05-29T10:08:20;101469.66;;;17.80;56.32
70015;BME280;57358;51.094;6.760;2023-05-29T10:10:53;101488.97;;;17.82;56.47
70015;BME280;57358;51.094;6.760;2023-05-29T10:13:22;101512.97;;;17.93;56.87
70015;BME280;57358;51.094;6.760;2023-05-29T10:15:51;101470.94;;;18.00;55.94
70015;BME280;57358;51.094;6.760;2023-05-29T10:18:24;101529.59;;;17.84;57.33
70015;BME280;57358;51.094;6.760;2023-05-29T10:20:53;101415.28;;;17.09;57.24
70015;BME280;57358;51.094;6.760;2023-05-29T10:23:25;101528.78;;;18.21;56.65
70015;BME280;57358;51.094;6.760;2023-05-29T10:25:54;101518.50;;;18.03;56.69
70015;BME280;57358;51.094;6.760;2023-05-29T10:28:23;101587.66;;;18.40;57.41
70015;BME280;57358;51.094;6.760;2023-05-29T10:30:52;101575.84;;;18.31;57.14
70015;BME280;57358;51.094;6.760;2023-05-29T10:33:23;101542.28;;;18.30;56.79
70015;BME280;57358;51.094;6.760;2023-05-29T10:36:13;101527.06;;;18.32;56.27
70015;BME280;57358;51.094;6.760;2023-05-29T10:38:41;101520.38;;;18.27;56.84
70015;BME280;57358;51.094;6.760;2023-05-29T10:46:21;101552.75;;;18.82;55.65
70015;BME280;57358;51.094;6.760;2023-05-29T10:49:16;101515.38;;;18.59;55.77
70015;BME280;57358;51.094;6.760;2023-05-29T10:51:42;101538.38;;;18.60;56.06
70015;BME280;57358;51.094;6.760;2023-05-29T10:54:10;101448.13;;;18.46;54.84
70015;BME280;57358;51.094;6.760;2023-05-29T10:56:37;101553.13;;;19.37;54.88
70015;BME280;57358;51.094;6.760;2023-05-29T10:59:03;101534.34;;;19.27;54.46
70015;BME280;57358;51.094;6.760;2023-05-29T11:01:31;101543.53;;;19.23;54.64
70015;BME280;57358;51.094;6.760;2023-05-29T11:04:30;101514.31;;;18.62;55.31
70015;BME280;57358;51.094;6.760;2023-05-29T11:06:58;101411.66;;;18.24;54.78
70015;BME280;57358;51.094;6.760;2023-05-29T11:09:30;101638.06;;;19.16;56.31
70015;BME280;57358;51.094;6.760;2023-05-29T11:12:13;101494.66;;;18.88;54.91
70015;BME280;57358;51.094;6.760;2023-05-29T11:15:01;101459.91;;;18.79;54.49
70015;BME280;57358;51.094;6.760;2023-05-29T11:20:12;101599.97;;;19.39;55.17
70015;BME280;57358;51.094;6.760;2023-05-29T11:22:53;101448.94;;;19.19;53.43
70015;BME280;57358;51.094;6.760;2023-05-29T11:25:22;101480.75;;;18.85;54.63
70015;BME280;57358;51.094;6.760;2023-05-29T11:27:49;101463.97;;;18.71;54.54
70015;BME280;57358;51.094;6.760;2023-05-29T11:30:20;101392.25;;;18.94;53.12
70015;BME280;57358;51.094;6.760;2023-05-29T11:32:48;101463.13;;;18.95;53.95
70015;BME280;57358;51.094;6.760;2023-05-29T11:35:15;101342.09;;;18.30;54.13
70015;BME280;57358;51.094;6.760;2023-05-29T11:37:42;101503.97;;;19.29;54.34
70015;BME280;57358;51.094;6.760;2023-05-29T11:40:14;101532.25;;;19.66;53.74
70015;BME280;57358;51.094;6.760;2023-05-29T11:42:42;101482.47;;;19.32;53.96
70015;BME280;57358;51.094;6.760;2023-05-29T11:45:18;101466.31;;;19.92;52.09
70015;BME280;57358;51.094;6.760;2023-05-29T11:47:56;101468.63;;;19.97;51.92
70015;BME280;57358;51.094;6.760;2023-05-29T11:50:24;101486.31;;;19.75;52.65
70015;BME280;57358;51.094;6.760;2023-05-29T11:52:51;101451.91;;;19.61;52.25
70015;BME280;57358;51.094;6.760;2023-05-29T11:55:22;101387.22;;;19.70;51.49
70015;BME280;57358;51.094;6.760;2023-05-29T11:57:49;101492.59;;;19.97;52.45
70015;BME280;57358;51.094;6.760;2023-05-29T12:00:17;101348.34;;;20.01;49.51
70015;BME280;57358;51.094;6.760;2023-05-29T12:02:45;101321.72;;;19.90;50.09
70015;BME280;57358;51.094;6.760;2023-05-29T12:05:16;101422.72;;;19.82;51.82
70015;BME280;57358;51.094;6.760;2023-05-29T12:07:50;101460.72;;;20.18;51.25
70015;BME280;57358;51.094;6.760;2023-05-29T12:10:17;101306.44;;;19.26;50.95
70015;BME280;57358;51.094;6.760;2023-05-29T12:12:59;101439.28;;;20.08;51.88
70015;BME280;57358;51.094;6.760;2023-05-29T12:15:27;101416.69;;;19.80;51.41
70015;BME280;57358;51.094;6.760;2023-05-29T12:17:54;101522.13;;;20.16;52.02
70015;BME280;57358;51.094;6.760;2023-05-29T12:20:25;101444.84;;;20.16;50.91
70015;BME280;57358;51.094;6.760;2023-05-29T12:22:59;101193.59;;;18.72;51.11
70015;BME280;57358;51.094;6.760;2023-05-29T12:25:28;101392.31;;;19.62;51.28
70015;BME280;57358;51.094;6.760;2023-05-29T12:27:55;101276.50;;;19.56;49.34
70015;BME280;57358;51.094;6.760;2023-05-29T12:30:22;101342.84;;;19.59;49.98
70015;BME280;57358;51.094;6.760;2023-05-29T12:32:59;101332.41;;;19.56;50.09
70015;BME280;57358;51.094;6.760;2023-05-29T12:35:29;101469.97;;;19.91;51.39
70015;BME280;57358;51.094;6.760;2023-05-29T12:38:04;101478.97;;;20.45;50.27
70015;BME280;57358;51.094;6.760;2023-05-29T12:40:31;101308.38;;;20.33;48.54
70015;BME280;57358;51.094;6.760;2023-05-29T12:43:01;101351.03;;;19.90;49.82
70015;BME280;57358;51.094;6.760;2023-05-29T12:45:32;101441.75;;;20.43;49.87
70015;BME280;57358;51.094;6.760;2023-05-29T12:48:00;101402.16;;;20.39;49.36
70015;BME280;57358;51.094;6.760;2023-05-29T12:50:32;101381.38;;;20.10;49.61
70015;BME280;57358;51.094;6.760;2023-05-29T12:53:07;101510.97;;;20.45;50.87
70015;BME280;57358;51.094;6.760;2023-05-29T12:55:35;101334.72;;;19.61;50.28
70015;BME280;57358;51.094;6.760;2023-05-29T12:58:07;101433.63;;;20.01;50.07
70015;BME280;57358;51.094;6.760;2023-05-29T13:00:35;101476.69;;;20.29;50.64
70015;BME280;57358;51.094;6.760;2023-05-29T13:03:02;101556.75;;;20.50;51.00
70015;BME280;57358;51.094;6.760;2023-05-29T13:05:29;101368.84;;;20.33;49.05
70015;BME280;57358;51.094;6.760;2023-05-29T13:07:56;101389.91;;;20.36;49.27